Time;durP1;ratioP1;P1;durP2;ratioP2;P2;SDS_P1;SDS_P2;PMS_P1;PMS_P2;Temp;Humidity;BMP_temperature;BMP_pressure;BME280_temperature;BME280_humidity;BME280_pressure;Samples;Min_cycle;Max_cycle;Signal;HPM_P1;HPM_P2
2021/08/04 00:00:29;;;;;;;11.88;5.22;;;;;;;13.35;100.00;97498.09;4981970;28;20046;-85
2021/08/04 00:02:57;;;;;;;10.07;4.65;;;;;;;13.37;100.00;97500.50;4982558;28;20467;-84
2021/08/04 00:05:25;;;;;;;12.95;5.13;;;;;;;13.36;100.00;97516.00;4997551;28;20093;-84
2021/08/04 00:07:52;;;;;;;12.23;5.15;;;;;;;13.39;100.00;97503.66;4982739;28;20066;-84
2021/08/04 00:10:20;;;;;;;14.77;5.10;;;;;;;13.34;100.00;97495.72;4997712;28;20089;-83
2021/08/04 00:12:48;;;;;;;18.48;5.40;;;;;;;13.42;100.00;97511.94;4999487;28;20050;-85
2021/08/04 00:15:17;;;;;;;17.42;5.30;;;;;;;13.47;100.00;97521.81;5022794;28;20053;-85
2021/08/04 00:17:46;;;;;;;11.75;5.18;;;;;;;13.52;100.00;97511.50;5001748;28;20053;-84
2021/08/04 00:20:15;;;;;;;9.40;5.15;;;;;;;13.51;100.00;97514.56;5001616;28;20499;-85
2021/08/04 00:22:46;;;;;;;13.48;4.85;;;;;;;13.45;100.00;97508.53;5006510;28;20054;-87
2021/08/04 00:25:16;;;;;;;18.33;4.88;;;;;;;13.36;100.00;97501.63;5017609;28;20046;-88
2021/08/04 00:27:43;;;;;;;18.67;5.05;;;;;;;13.44;100.00;97515.13;5010935;28;20053;-85
2021/08/04 00:30:12;;;;;;;8.95;4.55;;;;;;;13.56;100.00;97523.31;5018080;28;20042;-84
2021/08/04 00:32:39;;;;;;;18.33;5.20;;;;;;;13.51;100.00;97514.56;5000470;28;20069;-85
2021/08/04 00:35:13;;;;;;;17.92;4.75;;;;;;;13.47;100.00;97509.00;5001278;28;20053;-85
2021/08/04 00:37:40;;;;;;;18.05;5.00;;;;;;;13.55;100.00;97516.28;5001510;28;20141;-84
2021/08/04 00:40:08;;;;;;;9.23;4.90;;;;;;;13.42;100.00;97497.56;5000332;28;20464;-85
2021/08/04 00:42:41;;;;;;;20.67;4.72;;;;;;;13.49;100.00;97523.06;4998902;28;20529;-84
2021/08/04 00:45:09;;;;;;;17.70;4.20;;;;;;;13.53;100.00;97504.13;5015524;28;20136;-84
2021/08/04 00:47:40;;;;;;;12.40;3.33;;;;;;;13.70;100.00;97515.59;5014751;23;20053;-82
2021/08/04 00:50:07;;;;;;;7.75;2.85;;;;;;;13.82;100.00;97524.94;5029274;28;20050;-82
2021/08/04 00:52:34;;;;;;;17.48;3.25;;;;;;;13.87;100.00;97524.72;5026106;28;20061;-82
2021/08/04 00:55:01;;;;;;;13.20;3.17;;;;;;;13.87;100.00;97514.63;5008675;28;20145;-83
2021/08/04 00:57:29;;;;;;;8.30;3.30;;;;;;;13.87;100.00;97511.91;5008056;28;20081;-83
2021/08/04 00:59:55;;;;;;;17.73;3.75;;;;;;;13.88;100.00;97526.31;5010386;28;20137;-83
2021/08/04 01:02:30;;;;;;;11.93;3.45;;;;;;;13.86;100.00;97518.47;5007658;28;20041;-82
2021/08/04 01:05:13;;;;;;;14.15;3.40;;;;;;;13.90;100.00;97518.59;5007009;28;20132;-82
2021/08/04 01:07:53;;;;;;;15.45;3.72;;;;;;;13.86;100.00;97521.19;5006576;28;20053;-82
2021/08/04 01:10:39;;;;;;;20.67;3.30;;;;;;;13.89;100.00;97515.06;4991111;28;20143;-82
2021/08/04 01:13:14;;;;;;;14.18;3.80;;;;;;;13.87;100.00;97517.34;5007709;28;20042;-82
2021/08/04 01:16:02;;;;;;;9.50;3.30;;;;;;;13.89;100.00;97506.13;5009217;28;20058;-82
2021/08/04 01:18:36;;;;;;;8.10;3.67;;;;;;;13.88;100.00;97510.78;4991935;28;20141;-82
2021/08/04 01:21:02;;;;;;;5.57;3.28;;;;;;;13.93;100.00;97516.00;4989302;28;20101;-82
2021/08/04 01:23:57;;;;;;;6.10;3.10;;;;;;;13.98;100.00;97510.34;4989946;28;20046;-81
2021/08/04 01:26:30;;;;;;;13.85;3.58;;;;;;;14.01;100.00;97525.19;4989790;28;20511;-82
2021/08/04 01:29:00;;;;;;;9.23;3.70;;;;;;;13.99;100.00;97519.31;4987535;28;20092;-84
2021/08/04 01:31:30;;;;;;;6.35;4.07;;;;;;;13.98;100.00;97517.69;4988273;28;20093;-83
2021/08/04 01:33:59;;;;;;;16.75;4.65;;;;;;;13.96;100.00;97520.75;4988886;28;20253;-82
2021/08/04 01:36:26;;;;;;;8.50;3.35;;;;;;;13.93;100.00;97513.28;4988133;28;20039;-82
2021/08/04 01:38:54;;;;;;;8.40;3.70;;;;;;;13.91;100.00;97509.31;4987846;28;20394;-82
2021/08/04 01:41:22;;;;;;;11.60;3.80;;;;;;;13.95;100.00;97515.66;4987907;28;20085;-82
2021/08/04 01:43:51;;;;;;;20.17;4.63;;;;;;;13.92;100.00;97510.88;4987913;28;20117;-82
2021/08/04 01:46:21;;;;;;;10.27;4.10;;;;;;;13.87;100.00;97513.81;4987230;28;20105;-82
2021/08/04 01:48:49;;;;;;;11.48;4.40;;;;;;;13.92;100.00;97511.69;4988539;28;20104;-83
2021/08/04 01:51:16;;;;;;;13.10;4.68;;;;;;;13.92;100.00;97519.84;4989142;28;20042;-82
2021/08/04 01:53:46;;;;;;;10.88;5.30;;;;;;;13.89;100.00;97515.06;4989061;28;20506;-83
2021/08/04 01:56:14;;;;;;;13.73;4.90;;;;;;;13.87;100.00;97511.91;4990507;28;20090;-83
2021/08/04 01:58:42;;;;;;;17.02;4.88;;;;;;;13.86;100.00;97506.81;4990747;28;20783;-83
2021/08/04 02:01:10;;;;;;;14.52;4.90;;;;;;;13.85;100.00;97508.75;4988423;28;20046;-81
2021/08/04 02:03:37;;;;;;;17.88;5.03;;;;;;;13.87;100.00;97514.63;4989008;28;20113;-80
2021/08/04 02:06:16;;;;;;;13.32;4.97;;;;;;;13.85;100.00;97513.38;4989129;28;20050;-82
2021/08/04 02:08:59;;;;;;;15.20;5.30;;;;;;;13.87;100.00;97502.94;4989268;28;20073;-82
2021/08/04 02:11:47;;;;;;;11.75;5.45;;;;;;;13.87;100.00;97511.91;4990453;28;20060;-82
2021/08/04 02:14:18;;;;;;;14.98;4.50;;;;;;;13.85;100.00;97514.19;4987658;28;20061;-81
2021/08/04 02:17:08;;;;;;;15.85;5.03;;;;;;;13.86;100.00;97501.38;4985470;28;20070;-82
2021/08/04 02:19:57;;;;;;;15.80;4.82;;;;;;;13.88;100.00;97501.81;4988032;28;20110;-82
2021/08/04 02:22:30;;;;;;;20.23;4.93;;;;;;;13.87;100.00;97501.03;4969766;28;20117;-81
2021/08/04 02:25:05;;;;;;;13.65;4.93;;;;;;;13.89;100.00;97496.03;4987668;28;20061;-82
2021/08/04 02:27:35;;;;;;;13.43;5.43;;;;;;;13.88;100.00;97493.66;4986450;28;20493;-82
2021/08/04 02:30:06;;;;;;;18.45;5.35;;;;;;;13.82;100.00;97500.44;4988134;28;20075;-82
2021/08/04 02:32:33;;;;;;;14.60;5.28;;;;;;;13.86;100.00;97496.69;4988700;28;20572;-81
2021/08/04 02:35:00;;;;;;;18.40;5.13;;;;;;;13.82;100.00;97501.25;4990631;28;20061;-82
2021/08/04 02:37:28;;;;;;;13.55;5.40;;;;;;;13.82;100.00;97495.00;4991430;28;20047;-82
2021/08/04 02:39:55;;;;;;;8.75;4.95;;;;;;;13.85;100.00;97491.59;4989990;28;20054;-81
2021/08/04 02:42:23;;;;;;;19.10;5.50;;;;;;;13.85;100.00;97495.13;4988600;28;20052;-82
2021/08/04 02:44:50;;;;;;;11.68;5.10;;;;;;;13.90;100.00;97486.75;4988783;28;20054;-81
2021/08/04 02:47:17;;;;;;;18.42;5.13;;;;;;;13.93;100.00;97494.22;4989017;28;20513;-81
2021/08/04 02:49:49;;;;;;;12.95;5.47;;;;;;;13.96;100.00;97487.31;4990622;28;20057;-82
2021/08/04 02:52:19;;;;;;;10.82;5.63;;;;;;;13.95;100.00;97488.44;4989938;28;20125;-82
2021/08/04 02:54:46;;;;;;;15.68;5.13;;;;;;;13.94;100.00;97486.84;4990885;28;20050;-82
2021/08/04 02:57:13;;;;;;;15.13;5.05;;;;;;;13.94;100.00;97500.44;4989331;28;20046;-81
2021/08/04 02:59:40;;;;;;;14.38;5.90;;;;;;;13.92;100.00;97498.06;4973083;28;20042;-82
2021/08/04 03:02:07;;;;;;;12.85;5.15;;;;;;;13.95;100.00;97499.31;4991189;28;20050;-82
2021/08/04 03:04:34;;;;;;;11.45;5.22;;;;;;;13.92;100.00;97494.56;4990664;28;20042;-82
2021/08/04 03:07:02;;;;;;;16.80;5.35;;;;;;;13.87;100.00;97495.56;4989172;28;20406;-82
2021/08/04 03:09:29;;;;;;;11.60;5.18;;;;;;;13.85;100.00;97494.34;4988849;28;20046;-82
2021/08/04 03:11:55;;;;;;;27.65;5.70;;;;;;;13.80;100.00;97491.84;4989888;28;20050;-82
2021/08/04 03:14:22;;;;;;;9.07;4.88;;;;;;;13.79;100.00;97487.50;4989579;28;20070;-82
2021/08/04 03:16:49;;;;;;;13.95;5.80;;;;;;;13.74;100.00;97483.91;4990551;28;20536;-82
2021/08/04 03:19:16;;;;;;;15.48;6.43;;;;;;;13.78;100.00;97489.47;4990987;28;20046;-81
2021/08/04 03:21:42;;;;;;;14.13;6.10;;;;;;;13.74;100.00;97493.97;4990687;28;20049;-81
2021/08/04 03:24:09;;;;;;;20.20;6.43;;;;;;;13.74;100.00;97493.97;4991054;28;20066;-81
2021/08/04 03:26:35;;;;;;;16.15;6.25;;;;;;;13.80;100.00;97500.00;4991015;28;20062;-82
2021/08/04 03:29:03;;;;;;;13.70;6.55;;;;;;;13.84;100.00;97495.44;4988679;28;20052;-82
2021/08/04 03:31:29;;;;;;;17.38;6.82;;;;;;;13.82;100.00;97495.81;4991977;28;20057;-82
2021/08/04 03:33:56;;;;;;;9.50;6.43;;;;;;;13.82;100.00;97495.81;4992469;28;20481;-82
2021/08/04 03:36:24;;;;;;;13.68;6.38;;;;;;;13.76;100.00;97494.44;4996832;28;20153;-83
2021/08/04 03:38:51;;;;;;;18.92;7.40;;;;;;;13.68;100.00;97496.13;4990542;28;20280;-83
2021/08/04 03:41:18;;;;;;;16.15;7.15;;;;;;;13.61;100.00;97489.66;4972270;28;20186;-83
2021/08/04 03:43:44;;;;;;;22.70;7.60;;;;;;;13.56;100.00;97489.88;4989396;28;20152;-82
2021/08/04 03:46:11;;;;;;;19.73;7.03;;;;;;;13.57;100.00;97505.06;4994637;28;20046;-83
2021/08/04 03:48:38;;;;;;;20.00;6.60;;;;;;;13.60;100.00;97497.00;4991217;28;20113;-83
2021/08/04 03:51:05;;;;;;;16.92;6.65;;;;;;;13.61;100.00;97497.81;4990634;28;20042;-83
2021/08/04 03:53:31;;;;;;;19.80;6.22;;;;;;;13.55;100.00;97486.34;5001352;28;20076;-83
2021/08/04 03:55:58;;;;;;;15.07;6.78;;;;;;;13.59;100.00;97498.16;5003860;28;20046;-83
2021/08/04 03:58:25;;;;;;;19.85;6.72;;;;;;;13.59;100.00;97490.00;4991492;28;20093;-83
2021/08/04 04:00:51;;;;;;;17.45;6.82;;;;;;;13.60;100.00;97485.34;5007558;28;20041;-83
2021/08/04 04:03:18;;;;;;;14.73;6.78;;;;;;;13.62;100.00;97492.06;4996404;28;20129;-83
2021/08/04 04:05:48;;;;;;;12.85;6.53;;;;;;;13.63;100.00;97493.63;4991039;28;20046;-85
2021/08/04 04:08:14;;;;;;;12.65;6.32;;;;;;;13.65;100.00;97499.50;4988394;28;20058;-83
2021/08/04 04:10:41;;;;;;;11.50;6.10;;;;;;;13.64;100.00;97494.41;4990170;28;20077;-85
2021/08/04 04:13:08;;;;;;;15.32;6.65;;;;;;;13.65;100.00;97502.22;4988502;28;20047;-83
2021/08/04 04:15:34;;;;;;;11.02;6.57;;;;;;;13.64;100.00;97505.31;4990520;28;20046;-83
2021/08/04 04:18:01;;;;;;;18.48;7.18;;;;;;;13.65;100.00;97499.50;4990738;28;20042;-82
2021/08/04 04:20:27;;;;;;;13.77;7.25;;;;;;;13.72;100.00;97501.69;4992714;28;20047;-81
2021/08/04 04:22:54;;;;;;;19.27;7.25;;;;;;;13.79;100.00;97518.25;4989878;28;20053;-83
2021/08/04 04:25:23;;;;;;;12.75;6.97;;;;;;;13.87;100.00;97513.81;4985847;28;20425;-83
2021/08/04 04:27:49;;;;;;;17.65;7.20;;;;;;;13.91;100.00;97510.09;4988569;28;20242;-84
2021/08/04 04:30:16;;;;;;;12.60;6.10;;;;;;;14.00;100.00;97513.50;4972057;28;20117;-86
2021/08/04 04:32:43;;;;;;;13.40;6.55;;;;;;;14.06;100.00;97508.63;4990627;28;20402;-83
2021/08/04 04:35:10;;;;;;;22.23;6.57;;;;;;;14.06;100.00;97514.06;4972052;28;20050;-84
2021/08/04 04:37:37;;;;;;;15.15;6.85;;;;;;;14.03;100.00;97507.38;4971691;28;20046;-84
2021/08/04 04:40:04;;;;;;;12.75;6.45;;;;;;;14.08;100.00;97514.53;4989261;28;20061;-85
2021/08/04 04:42:33;;;;;;;12.68;6.75;;;;;;;14.08;100.00;97523.50;4989004;28;20038;-84
2021/08/04 04:45:00;;;;;;;12.23;6.93;;;;;;;14.10;100.00;97523.13;4987126;28;20042;-84
2021/08/04 04:47:27;;;;;;;17.52;6.45;;;;;;;14.10;100.00;97523.13;4973951;28;20049;-85
2021/08/04 04:49:53;;;;;;;15.18;7.07;;;;;;;14.13;100.00;97520.53;4998068;28;20046;-84
2021/08/04 04:52:20;;;;;;;14.20;6.40;;;;;;;14.16;100.00;97525.31;4996262;28;20038;-84
2021/08/04 04:54:46;;;;;;;12.80;6.30;;;;;;;14.11;100.00;97530.19;5017572;28;20046;-79
2021/08/04 04:57:13;;;;;;;13.60;6.13;;;;;;;14.11;100.00;97519.28;5021336;28;20065;-79
2021/08/04 04:59:42;;;;;;;19.17;6.70;;;;;;;14.13;100.00;97522.47;5022052;28;20049;-80
2021/08/04 05:02:09;;;;;;;17.27;6.28;;;;;;;14.07;100.00;97530.06;5020025;28;20114;-81
2021/08/04 05:04:35;;;;;;;17.73;6.40;;;;;;;14.05;100.00;97526.88;5007936;28;20065;-81
2021/08/04 05:07:02;;;;;;;10.73;6.10;;;;;;;14.08;100.00;97536.31;5007072;28;20059;-80
2021/08/04 05:09:29;;;;;;;9.48;5.43;;;;;;;14.09;100.00;97532.47;5008184;28;20101;-81
2021/08/04 05:11:56;;;;;;;14.93;6.68;;;;;;;14.13;100.00;97538.81;5008555;28;20058;-81
2021/08/04 05:14:22;;;;;;;14.32;6.80;;;;;;;14.16;100.00;97538.13;5008524;28;20057;-81
2021/08/04 05:16:54;;;;;;;13.90;7.28;;;;;;;14.19;100.00;97545.63;5008022;28;20457;-81
2021/08/04 05:19:20;;;;;;;14.20;7.50;;;;;;;14.28;100.00;97547.09;5007111;28;20531;-81
2021/08/04 05:21:47;;;;;;;17.92;7.50;;;;;;;14.41;100.00;97544.38;5007834;28;20042;-82
2021/08/04 05:24:13;;;;;;;9.30;6.60;;;;;;;14.51;100.00;97550.16;5008264;28;20041;-80
2021/08/04 05:26:40;;;;;;;12.07;6.32;;;;;;;14.75;100.00;97541.97;5008792;28;20232;-81
2021/08/04 05:29:06;;;;;;;10.90;5.82;;;;;;;14.87;100.00;97550.09;5008395;28;20046;-80
2021/08/04 05:31:33;;;;;;;7.28;5.35;;;;;;;14.99;100.00;97541.88;5008099;28;20156;-81
2021/08/04 05:34:02;;;;;;;7.35;4.80;;;;;;;15.09;100.00;97534.38;5007833;28;20576;-80
2021/08/04 05:36:29;;;;;;;10.30;5.20;;;;;;;15.19;100.00;97526.50;5008307;28;20049;-81
2021/08/04 05:38:57;;;;;;;8.32;4.80;;;;;;;15.33;100.00;97535.06;5006902;28;20112;-81
2021/08/04 05:41:24;;;;;;;11.20;4.88;;;;;;;15.44;100.00;97533.41;4990427;28;20038;-81
2021/08/04 05:43:50;;;;;;;11.50;4.85;;;;;;;15.51;100.00;97532.88;5007709;28;20469;-81
2021/08/04 05:46:17;;;;;;;7.40;5.40;;;;;;;15.70;100.00;97530.25;5006373;28;20160;-81
2021/08/04 05:48:44;;;;;;;7.05;4.78;;;;;;;15.76;100.00;97519.84;5008129;28;20535;-81
2021/08/04 05:51:10;;;;;;;10.10;5.03;;;;;;;15.92;100.00;97520.66;5008376;28;20049;-79
2021/08/04 05:53:37;;;;;;;8.15;5.13;;;;;;;15.98;100.00;97524.69;5008660;28;20050;-82
2021/08/04 05:56:04;;;;;;;6.60;4.45;;;;;;;16.07;100.00;97526.13;5006323;28;20065;-80
2021/08/04 05:58:31;;;;;;;11.00;4.80;;;;;;;16.16;100.00;97526.72;5008045;28;20623;-80
2021/08/04 06:00:57;;;;;;;7.63;4.25;;;;;;;16.25;100.00;97525.75;5008516;28;20038;-82
2021/08/04 06:03:24;;;;;;;6.30;4.38;;;;;;;16.15;100.00;97533.34;5007412;28;20046;-81
2021/08/04 06:05:51;;;;;;;6.78;4.10;;;;;;;16.00;100.00;97527.91;5011340;28;20108;-81
2021/08/04 06:08:18;;;;;;;7.78;4.03;;;;;;;16.02;100.00;97531.06;5012323;28;20101;-82
2021/08/04 06:10:44;;;;;;;11.18;4.45;;;;;;;16.00;100.00;97531.41;5007840;28;20041;-81
2021/08/04 06:13:11;;;;;;;7.25;3.85;;;;;;;16.01;100.00;97535.72;5008503;28;20053;-81
2021/08/04 06:15:47;;;;;;;7.88;4.20;;;;;;;16.11;100.00;97537.13;4996208;28;20758;-82
2021/08/04 06:18:14;;;;;;;5.75;4.00;;;;;;;16.03;100.00;97538.88;5023615;28;20050;-81
2021/08/04 06:20:43;;;;;;;8.05;4.18;;;;;;;16.29;100.00;97529.34;5011666;28;20097;-80
2021/08/04 06:23:10;;;;;;;7.10;4.38;;;;;;;16.32;100.00;97528.66;5014405;28;20440;-81
2021/08/04 06:25:37;;;;;;;8.25;4.35;;;;;;;16.41;100.00;97534.75;5012179;28;20138;-83
2021/08/04 06:28:04;;;;;;;12.25;4.13;;;;;;;16.63;100.00;97547.75;5013143;28;20052;-80
2021/08/04 06:30:30;;;;;;;9.70;4.38;;;;;;;16.67;100.00;97527.56;4996090;28;20058;-81
2021/08/04 06:32:57;;;;;;;7.05;4.00;;;;;;;16.60;100.00;97540.28;5013770;28;20381;-81
2021/08/04 06:35:24;;;;;;;7.35;4.03;;;;;;;16.54;100.00;97536.25;5012194;28;20104;-84
2021/08/04 06:37:50;;;;;;;9.55;4.40;;;;;;;16.59;100.00;97541.44;5013916;28;20523;-80
2021/08/04 06:40:17;;;;;;;5.82;3.80;;;;;;;16.62;100.00;97541.50;5013706;28;20272;-81
2021/08/04 06:42:44;;;;;;;8.13;3.67;;;;;;;16.68;100.00;97528.34;5013471;23;20141;-80
2021/08/04 06:45:12;;;;;;;7.05;3.92;;;;;;;16.85;100.00;97543.56;5026631;28;20586;-81
2021/08/04 06:47:38;;;;;;;5.95;4.40;;;;;;;16.79;100.00;97537.59;5001853;28;20042;-79
2021/08/04 06:50:07;;;;;;;6.13;3.70;;;;;;;16.58;100.00;97542.56;5018236;28;20061;-77
2021/08/04 06:52:33;;;;;;;6.70;3.75;;;;;;;16.51;100.00;97540.44;5018695;28;20041;-78
2021/08/04 06:55:00;;;;;;;4.63;3.70;;;;;;;16.39;100.00;97543.28;5017602;28;20499;-81
2021/08/04 06:57:27;;;;;;;5.38;3.70;;;;;;;16.47;100.00;97552.44;5017287;28;20053;-79
2021/08/04 06:59:56;;;;;;;5.68;3.95;;;;;;;16.44;100.00;97540.25;5017771;28;20042;-77
2021/08/04 07:02:22;;;;;;;7.57;4.03;;;;;;;16.56;100.00;97550.34;5019476;28;20507;-80
2021/08/04 07:04:49;;;;;;;5.95;3.90;;;;;;;16.52;100.00;97549.41;5017593;28;20456;-79
2021/08/04 07:07:19;;;;;;;4.47;3.72;;;;;;;16.48;100.00;97548.56;5001370;28;20054;-82
2021/08/04 07:09:45;;;;;;;5.47;4.15;;;;;;;16.63;100.00;97551.28;5013691;28;20080;-81
2021/08/04 07:12:12;;;;;;;7.35;3.95;;;;;;;16.79;100.00;97554.00;4992223;28;20088;-79
2021/08/04 07:14:39;;;;;;;6.13;3.72;;;;;;;16.91;100.00;97553.84;4997014;28;20049;-82
2021/08/04 07:17:06;;;;;;;5.03;3.15;;;;;;;16.95;100.00;97551.22;4998838;28;20420;-80
2021/08/04 07:19:33;;;;;;;4.93;2.80;;;;;;;16.93;100.00;97548.06;5001287;28;20207;-79
2021/08/04 07:22:00;;;;;;;7.13;3.50;;;;;;;16.86;100.00;97554.13;5018183;28;20129;-82
2021/08/04 07:24:27;;;;;;;6.10;3.67;;;;;;;16.83;100.00;97560.31;5014601;28;20046;-80
2021/08/04 07:26:54;;;;;;;8.48;4.10;;;;;;;16.81;100.00;97559.88;5016765;28;20042;-80
2021/08/04 07:29:24;;;;;;;6.57;3.65;;;;;;;17.00;100.00;97568.13;5017348;28;20049;-82
2021/08/04 07:31:54;;;;;;;5.50;3.60;;;;;;;17.01;100.00;97564.22;4996903;28;20137;-83
2021/08/04 07:34:24;;;;;;;3.90;2.88;;;;;;;17.05;100.00;97564.31;5014423;28;20184;-79
2021/08/04 07:36:52;;;;;;;4.47;2.78;;;;;;;17.00;100.00;97556.41;5013965;28;20049;-80
2021/08/04 07:39:20;;;;;;;4.22;2.92;;;;;;;17.33;100.00;97562.97;5007293;28;20143;-80
2021/08/04 07:41:52;;;;;;;5.25;2.72;;;;;;;17.50;100.00;97563.69;4997713;28;20038;-83
2021/08/04 07:44:24;;;;;;;8.15;2.70;;;;;;;17.52;100.00;97553.16;5015632;28;20042;-80
2021/08/04 07:46:54;;;;;;;3.97;2.78;;;;;;;17.43;100.00;97554.19;5015240;28;20488;-81
2021/08/04 07:49:21;;;;;;;4.65;2.55;;;;;;;17.59;100.00;97565.06;5015488;28;20119;-84
2021/08/04 07:51:47;;;;;;;3.80;3.05;;;;;;;17.52;100.00;97558.66;5013674;28;20046;-81
2021/08/04 07:54:14;;;;;;;5.65;3.08;;;;;;;17.42;100.00;97563.53;5016284;28;20053;-81
2021/08/04 07:56:45;;;;;;;3.65;2.90;;;;;;;17.43;100.00;97564.31;5012760;28;20511;-86
2021/08/04 07:59:17;;;;;;;7.03;3.08;;;;;;;17.62;100.00;97558.09;4997584;28;20128;-81
2021/08/04 08:01:44;;;;;;;7.07;2.97;;;;;;;17.87;100.00;97554.66;5012097;28;20053;-84
2021/08/04 08:04:14;;;;;;;6.55;3.70;;;;;;;18.12;100.00;97552.34;5013543;28;20199;-82
2021/08/04 08:06:41;;;;;;;5.10;3.22;;;;;;;18.50;100.00;97559.66;5013269;28;20503;-82
2021/08/04 08:09:08;;;;;;;5.22;3.30;;;;;;;18.96;100.00;97555.63;5012698;28;20080;-81
2021/08/04 08:11:34;;;;;;;5.20;3.10;;;;;;;19.37;100.00;97544.78;5012477;28;20052;-81
2021/08/04 08:14:01;;;;;;;6.43;3.13;;;;;;;19.60;100.00;97542.72;5012428;28;20046;-84
2021/08/04 08:16:28;;;;;;;4.07;3.10;;;;;;;19.99;100.00;97541.16;5012204;28;20051;-83
2021/08/04 08:18:56;;;;;;;6.35;2.60;;;;;;;20.00;100.00;97539.22;5013016;28;20046;-81
2021/08/04 08:21:23;;;;;;;3.78;2.50;;;;;;;20.66;100.00;97554.69;5024422;28;20049;-77
2021/08/04 08:23:51;;;;;;;9.40;2.70;;;;;;;19.30;100.00;97561.97;5018028;28;20099;-79
2021/08/04 08:26:24;;;;;;;15.80;2.90;;;;;;;17.78;100.00;97565.03;5019642;28;20045;-79
2021/08/04 08:28:52;;;;;;;25.90;4.07;;;;;;;16.94;100.00;97571.50;5021681;28;20069;-81
2021/08/04 08:31:24;;;;;;;23.17;4.45;;;;;;;16.23;100.00;97626.41;5026671;28;20050;-86
2021/08/04 08:33:50;;;;;;;9.13;5.38;;;;;;;15.91;100.00;97631.00;5008559;28;20050;-83
2021/08/04 08:36:17;;;;;;;9.60;5.70;;;;;;;15.78;100.00;97621.28;5024421;28;20070;-85
2021/08/04 08:38:44;;;;;;;14.48;7.10;;;;;;;15.96;100.00;97628.81;5013163;28;20125;-88
2021/08/04 08:41:11;;;;;;;9.65;6.95;;;;;;;16.07;100.00;97621.72;5016009;28;20054;-87
2021/08/04 08:43:51;;;;;;;10.55;7.30;;;;;;;16.29;100.00;97625.78;5028599;28;20065;-85
2021/08/04 08:46:26;;;;;;;11.60;7.85;;;;;;;16.53;100.00;97617.44;5006331;28;20050;-82
2021/08/04 08:48:53;;;;;;;12.40;7.05;;;;;;;16.63;100.00;97605.16;5004043;28;20092;-81
2021/08/04 08:51:35;;;;;;;13.48;7.65;;;;;;;16.73;100.00;97586.28;5019502;28;20065;-83
2021/08/04 08:58:46;;;;;;;10.80;6.70;;;;;;;17.11;100.00;97569.13;4996378;28;20042;-84
2021/08/04 09:01:47;;;;;;;7.43;6.28;;;;;;;17.24;100.00;97569.81;5006094;28;20057;-82
2021/08/04 09:25:15;;;;;;;6.93;4.57;;;;;;;17.69;100.00;97553.53;4917207;29;20059;-80
2021/08/04 09:27:53;;;;;;;7.97;4.22;;;;;;;17.68;100.00;97553.91;4935612;29;20059;-85
2021/08/04 09:36:04;;;;;;;;;;;;;;;;;;;;;
2021/08/04 09:44:49;;;;;;;;;;;;;;;;;;;;;
2021/08/04 09:52:21;;;;;;;;;;;;;;;18.92;100.00;97541.06;4795786;29;20077;-81
2021/08/04 09:54:47;;;;;;;5.30;4.40;;;;;;;18.99;100.00;97546.66;4790835;29;19920;-80
2021/08/04 09:57:14;;;;;;;6.90;4.68;;;;;;;19.19;100.00;97536.31;4890308;29;20179;-81
2021/08/04 10:00:06;;;;;;;7.32;4.43;;;;;;;19.45;100.00;97539.03;4980787;28;20092;-80
2021/08/04 10:02:33;;;;;;;5.43;4.55;;;;;;;19.33;100.00;97541.97;4977981;28;20050;-81
2021/08/04 10:05:19;;;;;;;4.93;3.88;;;;;;;19.85;100.00;97524.53;5008207;28;20477;-81
2021/08/04 10:08:03;;;;;;;;;;;;;;;20.41;100.00;97538.78;5010114;28;20065;-81
2021/08/04 10:10:37;;;;;;;4.93;3.72;;;;;;;21.14;100.00;97530.66;5010202;28;19955;-81
2021/08/04 10:13:13;;;;;;;6.57;3.63;;;;;;;21.88;100.00;97522.66;5010594;28;20053;-80
2021/08/04 10:15:43;;;;;;;6.03;3.40;;;;;;;22.92;100.00;97531.28;5011217;28;20048;-80
2021/08/04 10:18:19;;;;;;;4.43;3.08;;;;;;;23.90;100.00;97518.28;5009049;28;20104;-81
2021/08/04 10:20:49;;;;;;;5.07;2.70;;;;;;;25.64;100.00;97510.66;4993382;28;20431;-80
2021/08/04 10:23:19;;;;;;;4.68;2.70;;;;;;;26.72;100.00;97508.59;4992772;28;20046;-81
2021/08/04 10:25:49;;;;;;;6.78;2.95;;;;;;;24.38;100.00;97515.56;5011074;28;20057;-80
2021/08/04 10:28:16;;;;;;;5.28;2.95;;;;;;;22.93;100.00;97514.34;5011704;28;20057;-80
2021/08/04 10:30:44;;;;;;;7.72;2.78;;;;;;;22.73;100.00;97517.94;5010660;28;20045;-78
2021/08/04 10:33:12;;;;;;;4.70;2.85;;;;;;;21.90;100.00;97509.25;5011191;28;20118;-78
2021/08/04 10:35:45;;;;;;;6.25;2.85;;;;;;;21.80;100.00;97510.78;5011885;28;20503;-82
2021/08/04 10:38:24;;;;;;;8.20;2.75;;;;;;;21.24;100.00;97514.16;5013225;28;20046;-82
2021/08/04 10:41:11;;;;;;;6.70;3.30;;;;;;;21.07;100.00;97518.44;5010495;28;20049;-81
2021/08/04 10:43:54;;;;;;;7.05;3.30;;;;;;;21.25;100.00;97512.19;5010446;28;20053;-79
2021/08/04 10:46:30;;;;;;;6.35;2.95;;;;;;;21.01;100.00;97517.19;5009714;28;20045;-81
2021/08/04 10:49:04;;;;;;;8.05;2.90;;;;;;;20.77;100.00;97520.59;5009885;28;20073;-80
2021/08/04 10:52:02;;;;;;;;;;;;;;;20.68;100.00;97511.09;5009773;28;20076;-80
2021/08/04 10:54:30;;;;;;;7.43;3.60;;;;;;;20.56;100.00;97509.44;5009581;28;19929;-80
2021/08/04 10:56:57;;;;;;;4.47;3.40;;;;;;;20.79;100.00;97510.00;5009170;28;20446;-79
2021/08/04 10:59:27;;;;;;;4.53;3.50;;;;;;;20.73;100.00;97511.50;4993271;28;20466;-80
2021/08/04 11:02:03;;;;;;;4.47;3.08;;;;;;;21.19;100.00;97508.25;5010372;28;20084;-79
2021/08/04 11:04:33;;;;;;;4.03;3.10;;;;;;;21.58;100.00;97514.66;5009011;28;20065;-78
2021/08/04 11:07:12;;;;;;;6.38;3.03;;;;;;;20.33;100.00;97511.66;5011173;28;20372;-79
2021/08/04 11:09:48;;;;;;;6.68;2.63;;;;;;;20.69;100.00;97513.47;5013131;28;20411;-80
2021/08/04 11:12:16;;;;;;;4.53;1.70;;;;;;;20.56;100.00;97514.94;5014040;28;20511;-79
2021/08/04 11:15:19;;;;;;;3.88;2.10;;;;;;;23.32;100.00;97505.91;5013857;28;20045;-77
2021/08/04 11:18:09;;;;;;;2.53;1.63;;;;;;;25.33;100.00;97506.28;5013697;28;20053;-78
2021/08/04 11:20:39;;;;;;;4.20;2.33;;;;;;;25.18;100.00;97497.38;5015412;28;20156;-80
2021/08/04 11:23:09;;;;;;;4.65;2.70;;;;;;;23.85;100.00;97497.34;5012302;28;20034;-80
2021/08/04 11:25:41;;;;;;;5.13;2.28;;;;;;;23.07;100.00;97499.72;5015522;28;20084;-78
2021/08/04 11:28:15;;;;;;;3.75;2.42;;;;;;;22.30;100.00;97504.16;5014147;28;20407;-80
2021/08/04 11:30:49;;;;;;;4.03;2.53;;;;;;;22.15;100.00;97502.59;5001677;28;20117;-82
2021/08/04 11:33:19;;;;;;;5.63;2.97;;;;;;;21.76;100.00;97496.19;5014170;28;20053;-79
2021/08/04 11:35:58;;;;;;;4.10;2.90;;;;;;;21.76;100.00;97493.44;5014368;28;20624;-78
2021/08/04 11:39:10;;;;;;;3.78;2.95;;;;;;;21.49;100.00;97506.78;5014876;28;20074;-79
2021/08/04 11:41:45;;;;;;;4.13;2.30;;;;;;;21.05;100.00;97503.44;5014424;28;20049;-79
2021/08/04 11:44:24;;;;;;;4.05;2.38;;;;;;;20.64;100.00;97516.59;4999151;28;20057;-78
2021/08/04 11:46:56;;;;;;;9.30;2.60;;;;;;;20.40;100.00;97515.22;5012340;28;20407;-78
2021/08/04 11:49:38;;;;;;;5.55;2.65;;;;;;;20.15;100.00;97505.19;5013427;28;20057;-79
2021/08/04 11:52:16;;;;;;;5.55;2.53;;;;;;;20.13;100.00;97508.28;5015749;28;20045;-80
2021/08/04 11:54:58;;;;;;;7.97;2.80;;;;;;;20.13;100.00;97496.53;5012000;28;20057;-79
2021/08/04 11:57:26;;;;;;;4.53;3.13;;;;;;;20.14;100.00;97506.34;5012873;28;20068;-79
2021/08/04 12:00:03;;;;;;;8.57;3.70;;;;;;;20.07;100.00;97509.84;5023821;28;20045;-81
2021/08/04 12:02:32;;;;;;;12.13;4.85;;;;;;;20.14;100.00;97509.88;5013313;28;20510;-81
2021/08/04 12:05:00;;;;;;;15.50;5.18;;;;;;;20.05;100.00;97506.69;5014647;28;20100;-81
2021/08/04 12:07:31;;;;;;;11.98;3.53;;;;;;;19.53;100.00;97485.78;5016520;28;20076;-80
2021/08/04 12:10:04;;;;;;;8.38;3.75;;;;;;;19.25;100.00;97508.16;5019096;28;20049;-81
2021/08/04 12:12:36;;;;;;;8.05;3.50;;;;;;;19.18;100.00;97497.09;5015075;28;20137;-82
2021/08/04 12:15:13;;;;;;;16.40;4.03;;;;;;;18.75;100.00;97510.66;4998426;28;20511;-82
2021/08/04 12:17:40;;;;;;;16.30;3.38;;;;;;;19.37;100.00;97512.66;5014697;28;20050;-81
2021/08/04 12:20:19;;;;;;;11.10;3.00;;;;;;;19.75;100.00;97511.47;5014350;28;20145;-80